Bundaberg Aerodrome, Australia
Current Conditions -  °F | °C
As of 1:00 PM on Sunday 25 Jan 2015 (Local Time) from YBUD Reporting Station
NA  
Wind Chill: 91°   Ceiling: NA
Heat Index: 108°   Visibility: NA
Dew Point: 79°   Wind: 9mph
Humidity: 66%   Direction: 10°N
Pressure: 29.65"   Gusts: NA
Location:  24.9°S, 152.32°E
Report Text: YBUD 250300Z AUTO 01008KT //// // ////// 33/26 Q1004
Loading
Personal Weather Stations






























Interactive Weather Map New forecast layout! Learn more

10-Day Weather Forecast

Advertisements
Track Severe Weather on mobile